< < Back
Terminal Aerodrome Forecast


Current Version              Previous Versions:   1  2  3  4  5  6  7  8  9  

Terminal Aerodrome Forecast

678
FTUS44 KHUN 301359 AAA
TAFHSV
TAF AMD
KHSV 301359Z 3014/3112 01012G17KT P6SM OVC030
     FM301700 36010G15KT P6SM SCT040 SCT250
     FM310000 VRB04KT P6SM SCT250=

Latest METAR

765
SAUS80 KWBC 311400 RRA
MTRHSV
METAR KHSV 311353Z 00000KT 10SM BKN150 M01/M04 A3039 RMK AO2 SLP294
T10061044


USA.gov is the U.S. government's official web portal to all federal, state and local government web resources and services.